Latest Coastal Weather Observations for Flinders Island Airport

IDV60701

Issued at 4:11 pm EST Monday 25 July 2016 (issued every 10 minutes, with the page automatically refreshed every 10 minutes)

About coastal observations | Map of coastal stations | Coastal observations for VIC | Marine services | Other Formats
Station Details ID: 099005 Name: FLINDERS ISLAND AIRPORT Lat: -40.09 Lon: 148.00 Height: 9.0 m
Data from the previous 72 hours. | See also: Recent months at Flinders Island Airport
Date/Time
EST
Temp
°C
Wind Pressure Rain since
9am
mm
Weather Cloud Vis
km
Sea
Height
m
Swell
Dir  Spd
kts
Gust
kts
hPa Trend Height
m
Period
s
Dir
25/04:00pm 9.8 NW 16 22 1000.3 - 2.6 - Partly cloudy 9 - - - -
25/03:30pm 10.7 NW 17 23 1000.5 - 2.4 - Partly cloudy 10 - - - -
25/03:02pm 10.4 WNW 18 28 1000.5 - 2.4 - Partly cloudy 10 - - - -
25/03:00pm 10.5 WNW 19 28 1000.5 - 2.4 - Cloudy 10 - - - -
25/02:48pm 11.4 WNW 16 27 1000.4 - 2.4 - Partly cloudy 10 - - - -
25/02:30pm 11.4 NW 14 19 1000.6 - 2.4 - Partly cloudy 10 - - - -
25/02:00pm 10.5 WNW 14 20 1000.9 - 2.4 - Partly cloudy 10 - - - -
25/01:30pm 11.8 W 17 22 1000.9 - 2.0 - Partly cloudy 10 - - - -
25/01:00pm 12.0 WNW 15 21 1001.1 - 1.6 - Partly cloudy 10 - - - -
25/12:40pm 12.3 WNW 16 21 1001.4 - 1.6 - Partly cloudy 10 - - - -
25/12:30pm 12.1 WNW 18 25 1001.4 - 1.6 - Partly cloudy 10 - - - -
25/12:17pm 12.3 WNW 16 26 1001.5 - 1.6 - Partly cloudy 10 - - - -
25/12:13pm 12.1 W 14 19 1001.6 - 1.6 - Partly cloudy 10 - - - -
25/12:07pm 11.3 W 15 22 1001.6 - 1.6 - Partly cloudy 8 - - - -
25/12:01pm 11.5 WNW 18 28 1001.7 - 1.4 - Partly cloudy 5 - - - -
25/12:00pm 11.6 WNW 19 28 1001.8 - 1.4 Rain Cloudy 4 - - - -
25/11:55am 11.7 NW 20 28 1001.8 - 0.8 - Partly cloudy 5 - - - -
25/11:44am 12.2 NW 19 30 1001.9 - 0.6 - Partly cloudy 10 - - - -
25/11:30am 11.8 NW 22 28 1002.1 - 0.6 - Partly cloudy 10 - - - -
25/11:18am 11.3 NW 20 30 1002.3 - 0.6 - Partly cloudy - - - - -
25/11:00am 10.8 NW 21 28 1002.4 - 0.2 - Partly cloudy 8 - - - -
25/10:36am 10.8 NW 20 27 1002.5 - 0.0 - Partly cloudy 10 - - - -
25/10:30am 11.0 NW 23 29 1002.4 - 0.0 - Partly cloudy 7 - - - -
25/10:00am 10.7 NW 20 28 1002.4 - 0.0 - Partly cloudy 10 - - - -
25/09:46am 10.8 NW 17 28 1002.4 - 0.0 - Partly cloudy 10 - - - -
25/09:30am 10.5 NNW 15 21 1002.4 - 0.0 - Partly cloudy 10 - - - -
25/09:26am 10.4 NNW 15 25 1002.5 - 0.0 - Partly cloudy 10 - - - -
25/09:23am 10.3 NNW 15 25 1002.5 - 0.0 - Partly cloudy 10 - - - -
25/09:00am 10.5 NW 18 25 1002.6 - 3.6 - Cloudy 10 - - - -
25/08:30am 10.5 NW 16 24 1002.7 - 3.6 - Partly cloudy 10 - - - -
25/08:00am 9.8 NW 15 22 1002.9 - 3.6 - Partly cloudy 9 - - - -
25/07:30am 10.0 NW 14 23 1002.7 - 3.6 - Partly cloudy 10 - - - -
25/07:00am 10.0 NW 16 21 1002.6 - 3.6 - Partly cloudy 10 - - - -
25/06:30am 10.1 NW 15 20 1002.5 - 3.6 - Partly cloudy 10 - - - -
25/06:00am 10.2 NW 13 18 1002.4 - 3.6 - Partly cloudy 10 - - - -
25/05:30am 9.9 NNW 11 16 1002.4 - 3.6 - Partly cloudy 10 - - - -
25/05:00am 9.8 NNW 9 14 1002.3 - 3.6 - Partly cloudy 10 - - - -
25/04:30am 9.7 NNW 9 14 1002.3 - 3.6 - Partly cloudy 10 - - - -
25/04:00am 9.7 NW 9 14 1002.4 - 3.6 - Partly cloudy 10 - - - -
25/03:30am 9.9 NW 15 19 1002.4 - 3.6 - Partly cloudy 10 - - - -
25/03:00am 10.2 NW 12 19 1002.5 - 3.6 - Cloudy 10 - - - -
25/02:30am 10.0 NNW 10 15 1002.8 - 3.6 - Partly cloudy 10 - - - -
25/02:00am 9.9 NNW 7 13 1003.0 - 3.6 - Partly cloudy 10 - - - -
25/01:30am 9.7 NNW 8 12 1003.1 - 3.6 - Partly cloudy 10 - - - -
25/01:00am 9.3 NNW 7 10 1003.0 - 3.6 - Partly cloudy 10 - - - -
25/12:30am 9.4 NNW 7 11 1003.2 - 3.6 - Partly cloudy 10 - - - -
25/12:00am 9.4 N 6 9 1003.6 - 3.6 - Mostly cloudy 10 - - - -
 
Date/Time
EST
Temp
°C
Wind Pressure Rain since
9am
mm
Weather Cloud Vis
km
Sea
Height
m
Swell
Dir  Spd
kts
Gust
kts
hPa Trend Height
m
Period
s
Dir
24/11:30pm 9.3 NNW 7 10 1003.8 - 3.6 - Partly cloudy 10 - - - -
24/11:00pm 9.6 NNW 7 11 1003.8 - 3.6 - Partly cloudy 10 - - - -
24/10:30pm 8.2 N 7 8 1004.0 - 3.6 - Partly cloudy 10 - - - -
24/10:00pm 7.8 N 6 7 1004.2 - 3.6 - - 10 - - - -
24/09:30pm 7.2 NNW 6 9 1004.5 - 3.6 - - 10 - - - -
24/09:00pm 6.6 N 6 7 1004.8 - 3.6 Recent precip. Mostly clear 10 - - - -
24/08:30pm 8.3 WNW 10 14 1005.0 - 3.4 - Partly cloudy 10 - - - -
24/08:00pm 8.5 WNW 10 20 1005.4 - 3.4 - Partly cloudy 10 - - - -
24/07:30pm 8.8 NNW 7 9 1005.1 - 3.4 - Partly cloudy 10 - - - -
24/07:00pm 8.9 N 6 8 1005.2 - 3.2 - Partly cloudy 10 - - - -
24/06:30pm 8.6 WNW 13 22 1005.3 - 3.2 - Partly cloudy 10 - - - -
24/06:00pm 9.1 WNW 9 13 1005.3 - 3.0 - Cloudy 10 - - - -
24/05:30pm 8.1 N 4 7 1005.4 - 3.0 - Partly cloudy 10 - - - -
24/05:00pm 8.3 SW 9 13 1005.5 - 3.0 - Partly cloudy 10 - - - -
24/04:30pm 8.2 WSW 14 18 1005.6 - 3.0 - Partly cloudy 10 - - - -
24/04:17pm 8.1 NW 8 18 1005.8 - 3.0 - Partly cloudy 10 - - - -
24/04:00pm 8.3 NW 5 7 1005.6 - 3.0 - Partly cloudy 10 - - - -
24/03:30pm 8.3 W 13 17 1005.7 - 3.0 - Partly cloudy 10 - - - -
24/03:19pm 8.3 W 15 18 1005.8 - 3.0 - Partly cloudy 10 - - - -
24/03:06pm 8.4 W 15 23 1005.9 - 3.0 - Partly cloudy 10 - - - -
24/03:00pm 8.6 W 11 15 1005.9 - 3.0 Recent precip. Cloudy 10 - - - -
24/02:30pm 8.2 WNW 14 20 1006.1 - 2.8 - Partly cloudy 9 - - - -
24/02:00pm 8.8 NW 12 19 1006.2 - 2.2 - Partly cloudy 10 - - - -
24/01:30pm 8.7 NW 11 17 1006.4 - 2.0 - Partly cloudy 10 - - - -
24/01:00pm 8.7 NW 9 14 1006.9 - 2.0 - Partly cloudy 10 - - - -
24/12:30pm 8.7 WNW 8 16 1007.2 - 2.0 - Partly cloudy 10 - - - -
24/12:22pm 8.4 WNW 9 14 1007.3 - 2.0 - Partly cloudy 10 - - - -
24/12:04pm 7.6 NW 15 23 1007.7 - 1.8 - Partly cloudy 5 - - - -
24/12:00pm 8.7 NW 13 23 1007.7 - 0.8 Rain Cloudy 10 - - - -
24/11:59am 8.9 NW 12 22 1007.7 - 0.6 - Partly cloudy 10 - - - -
24/11:30am 8.1 NNW 8 12 1007.9 - 0.6 - Partly cloudy 10 - - - -
24/11:00am 7.7 NNW 8 10 1008.4 - 0.6 - Partly cloudy 10 - - - -
24/10:30am 8.5 NNW 6 11 1008.3 - 0.0 - Partly cloudy 10 - - - -
24/10:00am 10.0 W 8 11 1008.1 - 0.0 - Partly cloudy 10 - - - -
24/09:30am 8.6 WNW 6 8 1008.2 - 0.0 - Partly cloudy 10 - - - -
24/09:00am 7.6 NW 5 6 1008.1 - 0.6 - Partly cloudy 10 - - - -
24/08:30am 6.9 WNW 6 7 1008.2 - 0.6 - - 10 - - - -
24/08:00am 6.4 WNW 9 11 1008.3 - 0.6 - Partly cloudy 10 - - - -
24/07:30am 7.0 W 11 18 1008.4 - 0.6 - Partly cloudy 10 - - - -
24/07:17am 6.7 WNW 10 22 1008.5 - 0.6 - Partly cloudy 10 - - - -
24/07:00am 6.2 NW 8 10 1008.5 - 0.6 - Partly cloudy 10 - - - -
24/06:30am 7.6 W 12 26 1008.4 - 0.4 - Partly cloudy 10 - - - -
24/06:05am 7.3 WNW 15 25 1008.4 - 0.2 - Partly cloudy 10 - - - -
24/06:00am 7.8 WNW 11 19 1008.3 - 0.2 - Partly cloudy 10 - - - -
24/05:30am 8.5 W 15 22 1007.9 - 0.2 - Partly cloudy 10 - - - -
24/05:00am 9.1 W 15 19 1007.8 - 0.2 - Partly cloudy 10 - - - -
24/04:30am 9.1 WSW 17 20 1007.7 - 0.2 - Partly cloudy 10 - - - -
24/04:00am 8.8 WSW 17 20 1007.7 - 0.2 - Partly cloudy 10 - - - -
24/03:30am 8.5 WSW 17 20 1007.9 - 0.2 - Partly cloudy 10 - - - -
24/03:00am 8.4 WSW 20 25 1007.9 - 0.2 - Mostly clear 10 - - - -
24/02:30am 8.6 WSW 19 23 1008.1 - 0.2 - Partly cloudy 10 - - - -
24/02:00am 8.5 WSW 18 22 1008.3 - 0.2 - Partly cloudy 10 - - - -
24/01:30am 8.4 WSW 21 27 1008.2 - 0.2 - Partly cloudy 10 - - - -
24/01:00am 8.5 WSW 22 29 1007.9 - 0.2 - - 10 - - - -
24/12:30am 8.4 WSW 23 28 1007.7 - 0.2 - - 10 - - - -
24/12:00am 8.3 SW 22 29 1007.6 - 0.2 - Mostly clear 10 - - - -
 
Date/Time
EST
Temp
°C
Wind Pressure Rain since
9am
mm
Weather Cloud Vis
km
Sea
Height
m
Swell
Dir  Spd
kts
Gust
kts
hPa Trend Height
m
Period
s
Dir
23/11:30pm 8.3 SW 25 32 1007.4 - 0.2 - - 10 - - - -
23/11:00pm 8.2 WSW 25 31 1007.2 - 0.2 - Partly cloudy 10 - - - -
23/10:30pm 8.2 SW 24 31 1006.9 - 0.2 - Partly cloudy 10 - - - -
23/10:00pm 8.0 SW 25 32 1006.5 - 0.2 - Partly cloudy 10 - - - -
23/09:33pm 8.2 SW 26 36 1006.0 - 0.2 - Partly cloudy 10 - - - -
23/09:30pm 8.2 SW 27 36 1005.9 - 0.2 - Partly cloudy 10 - - - -
23/09:20pm 8.1 WSW 27 37 1005.5 - 0.2 - Partly cloudy 10 - - - -
23/09:00pm 8.0 SW 26 33 1005.3 - 0.2 - Mostly clear 10 - - - -
23/08:30pm 7.8 WSW 29 34 1004.5 - 0.2 - Partly cloudy 10 - - - -
23/08:10pm 8.3 WSW 29 39 1003.9 - 0.2 - Partly cloudy 10 - - - -
23/08:00pm 8.3 WSW 30 36 1003.6 - 0.2 - Partly cloudy 10 - - - -
23/07:30pm 8.2 WSW 31 39 1003.0 - 0.2 - Partly cloudy 10 - - - -
23/07:06pm 8.3 WSW 32 42 1002.5 - 0.2 - - 10 - - - -
23/07:00pm 8.5 WSW 35 42 1002.2 - 0.2 - - 10 - - - -
23/06:30pm 8.5 WSW 36 46 1000.8 - 0.2 - Partly cloudy 10 - - - -
23/06:06pm 8.9 WSW 36 46 999.9 - 0.2 - Partly cloudy 10 - - - -
23/06:00pm 9.0 WSW 38 45 999.6 - 0.2 - Cloudy 10 - - - -
23/05:30pm 9.2 WSW 37 50 998.3 - 0.2 - Partly cloudy 10 - - - -
23/05:00pm 8.9 W 37 49 997.7 - 0.2 - Partly cloudy 10 - - - -
23/04:37pm 9.2 W 37 47 997.5 - 0.2 - Partly cloudy 10 - - - -
23/04:30pm 9.0 W 34 47 997.5 - 0.2 - Partly cloudy 10 - - - -
23/04:29pm 9.0 W 33 44 997.5 - 0.2 - Partly cloudy 10 - - - -
23/04:05pm 8.0 W 29 41 997.7 - 0.2 - Partly cloudy 10 - - - -
23/04:00pm 8.3 W 27 34 997.7 - 0.2 - Partly cloudy 10 - - - -
23/03:30pm 7.7 WSW 32 42 997.9 - 0.0 - Partly cloudy 8 - - - -
23/03:02pm 8.8 W 32 42 997.3 - 0.0 - Partly cloudy 10 - - - -
23/03:00pm 8.8 W 33 42 997.3 - 0.0 - Mostly clear 10 - - - -
23/02:52pm 8.8 W 35 45 997.1 - 0.0 - Partly cloudy 10 - - - -
23/02:30pm 9.1 WSW 36 43 996.8 - 0.0 - Partly cloudy 10 - - - -
23/02:17pm 9.2 WSW 34 44 996.5 - 0.0 - Partly cloudy 10 - - - -
23/02:00pm 9.2 WSW 33 42 996.5 - 0.0 - Partly cloudy 10 - - - -
23/01:48pm 8.5 WSW 31 41 996.5 - 0.0 - Partly cloudy 10 - - - -
23/01:30pm 9.1 WSW 34 42 996.1 - 0.0 - Partly cloudy 10 - - - -
23/01:00pm 8.3 WSW 36 48 995.9 - 0.0 - Partly cloudy 10 - - - -
23/12:31pm 8.3 WSW 40 50 995.6 - 0.0 - Partly cloudy 10 - - - -
23/12:30pm 8.4 WSW 41 50 995.5 - 0.0 - Partly cloudy 10 - - - -
23/12:00pm 8.1 WSW 37 49 995.4 - 0.0 - Mostly clear 10 - - - -
23/11:44am 9.0 WSW 37 47 994.6 - 0.0 - Partly cloudy 10 - - - -
23/11:30am 8.8 WSW 39 48 994.4 - 0.0 - Partly cloudy 10 - - - -
23/11:00am 8.6 WSW 37 47 994.2 - 0.0 - Partly cloudy 10 - - - -
23/10:32am 8.8 WSW 36 46 993.8 - 0.0 - Partly cloudy 10 - - - -
23/10:30am 8.7 WSW 37 46 993.7 - 0.0 - Partly cloudy 10 - - - -
23/10:00am 8.1 WSW 39 51 993.2 - 0.0 - Partly cloudy 10 - - - -
23/09:30am 7.4 WSW 36 49 992.6 - 0.0 - Partly cloudy 10 - - - -
23/09:11am 8.2 WSW 37 47 992.0 - 0.0 - Partly cloudy 10 - - - -
23/09:00am 8.0 WSW 36 45 991.8 - 2.2 Recent precip. Mostly clear 10 - - - -
23/08:51am 8.1 WSW 30 40 991.6 - 2.2 - Partly cloudy 10 - - - -
23/08:30am 6.7 WSW 37 54 991.7 - 2.2 - Partly cloudy 10 - - - -
23/08:26am 6.6 WSW 42 56 991.8 - 2.2 - Partly cloudy 9 - - - -
23/08:20am 6.9 WSW 36 56 991.7 - 2.2 - Partly cloudy 10 - - - -
23/08:19am 7.2 WSW 35 56 991.6 - 2.2 - Partly cloudy 10 - - - -
23/08:18am 7.8 WSW 33 56 991.5 - 2.2 - Partly cloudy 10 - - - -
23/08:16am 7.7 WSW 34 46 991.4 - 2.2 - Partly cloudy 10 - - - -
23/08:11am 7.1 WSW 39 55 991.3 - 2.2 - Partly cloudy 10 - - - -
23/08:06am 7.3 WSW 38 55 991.1 - 2.0 - Partly cloudy 9 - - - -
23/08:00am 7.1 WSW 34 47 991.1 - 2.0 - Partly cloudy 9 - - - -
23/07:39am 8.7 WSW 35 47 990.6 - 2.0 - Partly cloudy 10 - - - -
23/07:30am 8.8 WSW 34 41 990.4 - 2.0 - Partly cloudy 10 - - - -
23/07:00am 8.9 WSW 29 39 989.7 - 2.0 - Partly cloudy 10 - - - -
23/06:48am 8.5 WSW 26 36 989.6 - 2.0 - Partly cloudy 10 - - - -
23/06:41am 7.9 WSW 31 40 989.3 - 2.0 - Partly cloudy 10 - - - -
23/06:34am 8.3 WSW 33 46 989.4 - 2.0 - Partly cloudy 10 - - - -
23/06:30am 8.4 WSW 31 46 989.1 - 2.0 - Partly cloudy 10 - - - -
23/06:19am 8.4 WSW 28 38 989.0 - 2.0 - Partly cloudy 10 - - - -
23/06:04am 8.0 WSW 24 38 988.9 - 1.8 - Partly cloudy 5 - - - -
23/06:00am 7.8 W 22 38 988.9 - 1.6 Rain Cloudy 10 - - - -
23/05:37am 8.4 W 25 35 988.3 - 1.4 - Partly cloudy 10 - - - -
23/05:30am 8.5 W 29 35 988.2 - 1.4 - Partly cloudy 10 - - - -
23/05:22am 8.8 W 23 34 988.1 - 1.4 - Partly cloudy 10 - - - -
23/05:15am 8.5 W 23 29 988.0 - 1.2 - Partly cloudy 10 - - - -
23/05:00am 8.2 WSW 31 39 987.7 - 1.2 - Partly cloudy 7 - - - -
23/04:52am 8.8 WSW 26 36 987.6 - 1.2 - Partly cloudy 9 - - - -
23/04:45am 9.5 WSW 18 29 987.3 - 1.0 - Partly cloudy 10 - - - -
23/04:30am 8.8 WSW 17 21 987.2 - 1.0 - Partly cloudy 10 - - - -
23/04:27am 8.8 WSW 18 22 987.2 - 1.0 - Partly cloudy 10 - - - -
23/04:14am 8.3 WSW 22 32 987.1 - 0.8 - Partly cloudy 3 - - - -
23/04:07am 8.5 WSW 26 33 987.1 - 0.6 - Partly cloudy 5 - - - -
23/04:00am 10.4 WSW 20 33 986.9 - 0.2 - Partly cloudy 10 - - - -
23/03:30am 10.0 WSW 17 19 987.0 - 0.2 - Partly cloudy 10 - - - -
23/03:00am 10.5 W 16 18 987.1 - 0.2 - Cloudy 10 - - - -
23/02:30am 10.4 W 15 19 987.2 - 0.2 - Partly cloudy 10 - - - -
23/02:00am 10.5 W 15 18 987.6 - 0.2 - Cloudy 10 - - - -
23/01:30am 10.5 W 16 19 987.8 - 0.2 - Partly cloudy 10 - - - -
23/01:00am 10.4 W 11 15 988.1 - 0.2 - - 10 - - - -
23/12:30am 10.5 W 12 15 988.7 - 0.2 - Partly cloudy 10 - - - -
23/12:00am 10.4 W 14 18 989.3 - 0.2 - Cloudy 10 - - - -
 
Date/Time
EST
Temp
°C
Wind Pressure Rain since
9am
mm
Weather Cloud Vis
km
Sea
Height
m
Swell
Dir  Spd
kts
Gust
kts
hPa Trend Height
m
Period
s
Dir
22/11:30pm 10.6 W 17 20 989.5 - 0.2 - Partly cloudy 10 - - - -
22/11:00pm 10.8 WSW 17 20 989.7 - 0.2 - Partly cloudy 10 - - - -
22/10:30pm 10.8 W 17 20 990.2 - 0.2 - Partly cloudy 10 - - - -
22/10:00pm 11.1 WSW 18 21 990.5 - 0.2 - Partly cloudy 10 - - - -
22/09:30pm 11.2 W 18 23 990.7 - 0.2 - - 10 - - - -
22/09:00pm 11.4 W 19 25 991.3 - 0.2 - Cloudy 10 - - - -
22/08:33pm 11.6 W 19 29 991.3 - 0.2 - Partly cloudy 10 - - - -
22/08:30pm 11.6 W 18 23 991.3 - 0.2 - Partly cloudy 10 - - - -
22/08:00pm 11.7 W 21 27 991.2 - 0.2 - Partly cloudy 10 - - - -
22/07:30pm 11.9 W 24 32 991.0 - 0.2 - Partly cloudy 10 - - - -
22/07:02pm 11.9 W 27 37 990.8 - 0.2 - Partly cloudy 10 - - - -
22/07:00pm 11.8 W 28 37 990.8 - 0.2 - Partly cloudy 10 - - - -
22/06:39pm 12.3 W 23 34 990.6 - 0.2 - Partly cloudy 10 - - - -
22/06:30pm 12.4 W 23 29 990.6 - 0.2 - Partly cloudy 10 - - - -
22/06:00pm 12.5 W 25 34 990.0 - 0.2 - Mostly cloudy 10 - - - -
22/05:30pm 12.6 W 27 37 989.5 - 0.2 - - 10 - - - -
22/05:19pm 12.6 W 26 38 989.3 - 0.2 - Partly cloudy 10 - - - -
22/05:00pm 12.8 W 25 34 989.3 - 0.2 - Partly cloudy 10 - - - -
22/04:39pm 13.0 W 25 38 988.7 - 0.2 - Partly cloudy 10 - - - -
22/04:30pm 13.0 W 25 32 988.9 - 0.2 - - 10 - - - -

Other Formats:

Comma delimited format used in spreadsheet applications
http://www.bom.gov.au/fwo/IDV60701/IDV60701.94980.axf

JavaScript Object Notation format (JSON) in row-major order
http://www.bom.gov.au/fwo/IDV60701/IDV60701.94980.json